Terminal Aerodrome Forecast
Issued by NWS

Home | Current Version | Previous Version | Text Only | Print | Product List | Glossary On
Versions: 1 2 3 4 5 6 7 8 9 10 11 12 13 14 15 16 17 18 19 20
000
FTUS42 KMLB 152300
TAFSUA
TAF
KSUA 152336Z 1600/1624 13004KT P6SM SCT250
     FM161400 29004KT P6SM FEW025 SCT120 BKN250
     FM161800 06008KT P6SM VCTS SCT045CB BKN250=

USA.gov is the U.S. government's official web portal to all federal, state and local government web resources and services.